Time,TemperatureF,DewpointF,PressureIn,WindDirection,WindDirectionDegrees,WindSpeedMPH,WindSpeedGustMPH,Humidity,HourlyPrecipIn,Conditions,Clouds,dailyrainin,SoftwareType,DateUTC
2013-07-15 11:13:00,85.8,78.2,30.34,NNE,22,1.5,0.0,78,0.00,CLR,,0.00,WeatherDisplay:10.37,2013-07-15 15:13:00,
2013-07-15 11:15:00,86.2,78.5,30.34,ESE,112,1.8,2.3,78,0.00,CLR,,0.00,WeatherDisplay:10.37,2013-07-15 15:15:00,
2013-07-15 11:19:00,86.0,77.9,30.34,East,90,1.5,3.5,77,0.00,CLR,,0.00,WeatherDisplay:10.37,2013-07-15 15:19:00,
2013-07-15 11:23:00,86.2,78.5,30.34,SE,135,1.4,4.6,78,0.00,CLR,,0.00,WeatherDisplay:10.37,2013-07-15 15:23:00,
2013-07-15 11:28:00,86.2,78.5,30.34,SE,135,1.4,4.6,78,0.00,CLR,,0.00,WeatherDisplay:10.37,2013-07-15 15:28:00,
2013-07-15 11:33:00,86.2,78.5,30.34,SE,135,1.4,4.6,78,0.00,CLR,,0.00,WeatherDisplay:10.37,2013-07-15 15:33:00,
2013-07-15 12:34:00,86.2,78.5,30.34,North,0,0.0,4.6,78,0.00,CLR,,0.00,WeatherDisplay:10.37,2013-07-15 16:34:00,
2013-07-15 12:40:00,88.2,78.0,30.34,ESE,112,1.7,3.5,72,0.00,CLR,,0.00,WeatherDisplay:10.37,2013-07-15 16:40:00,
2013-07-15 12:45:00,88.5,78.8,30.34,ENE,68,1.4,2.3,73,0.00,CLR,,0.00,WeatherDisplay:10.37,2013-07-15 16:45:00,
2013-07-15 12:50:00,88.5,78.8,30.34,ENE,68,1.1,3.5,73,0.00,CLR,,0.00,WeatherDisplay:10.37,2013-07-15 16:50:00,
2013-07-15 12:55:00,88.2,78.0,30.34,SE,135,1.3,1.3,72,0.00,CLR,,0.00,WeatherDisplay:10.37,2013-07-15 16:55:00,
2013-07-15 13:00:00,89.1,78.0,30.34,ENE,68,1.5,2.3,70,0.00,CLR,,0.00,WeatherDisplay:10.37,2013-07-15 17:00:00,
2013-07-15 13:05:00,89.2,76.4,30.34,ESE,112,2.6,2.6,66,0.00,CLR,,0.00,WeatherDisplay:10.37,2013-07-15 17:05:00,
2013-07-15 13:11:00,89.2,76.4,30.33,ESE,112,2.6,3.5,66,0.00,CLR,,0.00,WeatherDisplay:10.37,2013-07-15 17:11:00,
2013-07-15 13:16:00,89.6,77.2,30.33,ENE,68,2.1,4.6,67,0.00,CLR,,0.00,WeatherDisplay:10.37,2013-07-15 17:16:00,
2013-07-15 13:21:00,89.1,77.1,30.33,ESE,112,1.1,0.0,68,0.00,CLR,,0.00,WeatherDisplay:10.37,2013-07-15 17:21:00,
2013-07-15 13:27:00,88.3,76.4,30.33,NNW,338,1.1,2.3,68,0.00,CLR,,0.00,WeatherDisplay:10.37,2013-07-15 17:27:00,
2013-07-15 13:32:00,88.2,76.7,30.34,SE,135,1.1,2.3,69,0.00,CLR,,0.00,WeatherDisplay:10.37,2013-07-15 17:32:00,
2013-07-15 13:37:00,88.9,77.8,30.34,SSE,158,1.1,3.5,70,0.00,CLR,,0.00,WeatherDisplay:10.37,2013-07-15 17:37:00,
2013-07-15 13:42:00,88.9,76.5,30.34,ENE,68,2.0,5.8,67,0.00,CLR,,0.00,WeatherDisplay:10.37,2013-07-15 17:42:00,
2013-07-15 13:47:00,89.4,77.9,30.34,East,90,1.7,2.3,69,0.00,CLR,,0.00,WeatherDisplay:10.37,2013-07-15 17:47:00,
2013-07-15 13:52:00,89.6,78.5,30.35,SSE,158,0.9,2.3,70,0.00,CLR,,0.00,WeatherDisplay:10.37,2013-07-15 17:52:00,
2013-07-15 13:58:00,90.1,78.6,30.35,SE,135,1.4,2.3,69,0.00,CLR,,0.00,WeatherDisplay:10.37,2013-07-15 17:58:00,
2013-07-15 14:03:00,90.1,78.1,30.35,NE,45,1.6,4.6,68,0.00,CLR,,0.00,WeatherDisplay:10.37,2013-07-15 18:03:00,
2013-07-15 14:10:00,90.3,77.4,30.35,NNE,22,2.1,5.8,66,0.00,CLR,,0.00,WeatherDisplay:10.37,2013-07-15 18:10:00,
2013-07-15 14:15:00,90.5,76.7,30.33,NNE,22,3.3,3.5,64,0.00,CLR,,0.00,WeatherDisplay:10.37,2013-07-15 18:15:00,
2013-07-15 14:20:00,90.9,76.5,30.33,East,90,2.6,3.5,63,0.00,CLR,,0.00,WeatherDisplay:10.37,2013-07-15 18:20:00,
2013-07-15 14:25:00,91.0,76.7,30.33,South,180,2.0,2.3,63,0.00,CLR,,0.00,WeatherDisplay:10.37,2013-07-15 18:25:00,
2013-07-15 14:33:00,91.4,77.0,30.32,ESE,112,2.2,2.3,63,0.00,CLR,,0.00,WeatherDisplay:10.37,2013-07-15 18:33:00,
2013-07-15 14:38:00,90.9,77.0,30.32,ENE,68,1.8,2.3,64,0.00,CLR,,0.00,WeatherDisplay:10.37,2013-07-15 18:38:00,
2013-07-15 14:43:00,91.6,77.2,30.32,ESE,112,1.6,2.3,63,0.00,CLR,,0.00,WeatherDisplay:10.37,2013-07-15 18:43:00,
2013-07-15 14:48:00,91.9,77.5,30.32,SW,225,1.6,4.9,63,0.00,CLR,,0.00,WeatherDisplay:10.37,2013-07-15 18:48:00,
2013-07-15 14:56:00,91.9,76.6,30.34,SE,135,2.0,2.3,61,0.00,CLR,,0.00,WeatherDisplay:10.37,2013-07-15 18:56:00,
2013-07-15 15:03:00,92.1,76.2,30.34,NE,45,2.2,3.5,60,0.00,CLR,,0.00,WeatherDisplay:10.37,2013-07-15 19:03:00,
2013-07-15 15:08:00,92.3,75.9,30.34,ENE,68,1.7,3.5,59,0.00,CLR,,0.00,WeatherDisplay:10.37,2013-07-15 19:08:00,
2013-07-15 15:13:00,92.7,76.7,30.34,SSE,158,1.6,3.5,60,0.00,CLR,,0.00,WeatherDisplay:10.37,2013-07-15 19:13:00,
2013-07-15 15:18:00,92.5,76.1,30.34,SE,135,2.0,5.8,59,0.00,CLR,,0.00,WeatherDisplay:10.37,2013-07-15 19:18:00,
2013-07-15 15:23:00,92.7,76.2,30.34,NE,45,2.4,3.1,59,0.00,CLR,,0.00,WeatherDisplay:10.37,2013-07-15 19:23:00,
2013-07-15 15:28:00,92.7,75.2,30.34,ESE,112,2.0,2.3,57,0.00,CLR,,0.00,WeatherDisplay:10.37,2013-07-15 19:28:00,
2013-07-15 15:33:00,92.8,75.9,30.34,ENE,68,1.7,2.3,58,0.00,CLR,,0.00,WeatherDisplay:10.37,2013-07-15 19:33:00,
2013-07-15 15:39:00,93.0,75.0,30.34,SE,135,2.0,2.3,56,0.00,CLR,,0.00,WeatherDisplay:10.37,2013-07-15 19:39:00,
2013-07-15 15:44:00,93.2,75.2,30.34,East,90,1.8,2.3,56,0.00,CLR,,0.00,WeatherDisplay:10.37,2013-07-15 19:44:00,
2013-07-15 15:49:00,93.6,76.0,30.34,SSE,158,1.7,3.5,57,0.00,CLR,,0.00,WeatherDisplay:10.37,2013-07-15 19:49:00,
2013-07-15 15:54:00,93.7,76.2,30.34,ESE,112,2.3,3.5,57,0.00,CLR,,0.00,WeatherDisplay:10.37,2013-07-15 19:54:00,
2013-07-15 16:01:00,92.7,75.7,30.34,SSE,158,3.0,6.3,58,0.00,CLR,,0.00,WeatherDisplay:10.37,2013-07-15 20:01:00,
2013-07-15 16:06:00,93.0,75.5,30.34,ENE,68,2.6,4.6,57,0.00,CLR,,0.00,WeatherDisplay:10.37,2013-07-15 20:06:00,
2013-07-15 16:11:00,93.2,75.7,30.34,SE,135,2.4,2.4,57,0.00,CLR,,0.00,WeatherDisplay:10.37,2013-07-15 20:11:00,
2013-07-15 16:16:00,92.8,75.9,30.34,ENE,68,2.1,2.4,58,0.00,CLR,,0.00,WeatherDisplay:10.37,2013-07-15 20:16:00,
2013-07-15 16:21:00,93.0,76.6,30.34,ENE,68,1.3,1.3,59,0.00,CLR,,0.00,WeatherDisplay:10.37,2013-07-15 20:21:00,
2013-07-15 16:26:00,93.2,76.2,30.34,SSE,158,1.3,3.5,58,0.00,CLR,,0.00,WeatherDisplay:10.37,2013-07-15 20:26:00,
2013-07-15 16:31:00,93.0,75.5,30.33,East,90,2.1,2.3,57,0.00,CLR,,0.00,WeatherDisplay:10.37,2013-07-15 20:31:00,
2013-07-15 16:36:00,93.6,76.0,30.33,NE,45,2.2,3.5,57,0.00,CLR,,0.00,WeatherDisplay:10.37,2013-07-15 20:36:00,
2013-07-15 16:41:00,93.0,76.1,30.33,ESE,112,2.1,3.5,58,0.00,CLR,,0.00,WeatherDisplay:10.37,2013-07-15 20:41:00,
2013-07-15 16:47:00,93.6,77.1,30.33,ENE,68,1.8,4.6,59,0.00,CLR,,0.00,WeatherDisplay:10.37,2013-07-15 20:47:00,
2013-07-15 16:53:00,93.7,77.2,30.33,ENE,68,1.4,1.4,59,0.00,CLR,,0.00,WeatherDisplay:10.37,2013-07-15 20:53:00,
2013-07-15 16:58:00,93.9,76.4,30.33,ENE,68,1.3,3.5,57,0.00,CLR,,0.00,WeatherDisplay:10.37,2013-07-15 20:58:00,
2013-07-15 17:03:00,93.7,76.7,30.33,SE,135,1.7,2.9,58,0.00,CLR,,0.00,WeatherDisplay:10.37,2013-07-15 21:03:00,
2013-07-15 17:08:00,93.0,76.1,30.33,SE,135,2.0,4.6,58,0.00,CLR,,0.00,WeatherDisplay:10.37,2013-07-15 21:08:00,
2013-07-15 17:13:00,93.0,76.1,30.33,SE,135,2.0,3.5,58,0.00,CLR,,0.00,WeatherDisplay:10.37,2013-07-15 21:13:00,
2013-07-15 17:18:00,93.0,76.1,30.33,SE,135,2.0,3.5,58,0.00,CLR,,0.00,WeatherDisplay:10.37,2013-07-15 21:18:00,
2013-07-15 17:23:00,93.0,76.1,30.33,SE,135,2.0,3.5,58,0.00,CLR,,0.00,WeatherDisplay:10.37,2013-07-15 21:23:00,
2013-07-15 17:28:00,93.0,76.1,30.33,SE,135,2.0,3.5,58,0.00,CLR,,0.00,WeatherDisplay:10.37,2013-07-15 21:28:00,
2013-07-15 17:34:00,93.0,76.1,30.33,SE,135,2.0,3.5,58,0.00,CLR,,0.00,WeatherDisplay:10.37,2013-07-15 21:34:00,
2013-07-15 17:41:00,93.0,76.1,30.33,SE,135,2.0,3.5,58,0.00,CLR,,0.00,WeatherDisplay:10.37,2013-07-15 21:41:00,
2013-07-15 17:46:00,93.0,76.1,30.33,SE,135,2.0,3.5,58,0.00,CLR,,0.00,WeatherDisplay:10.37,2013-07-15 21:46:00,
2013-07-15 17:51:00,93.0,76.1,30.33,SE,135,2.0,3.5,58,0.00,CLR,,0.00,WeatherDisplay:10.37,2013-07-15 21:51:00,
2013-07-15 17:56:00,93.0,76.1,30.33,SE,135,2.0,3.5,58,0.00,CLR,,0.00,WeatherDisplay:10.37,2013-07-15 21:56:00,
2013-07-15 18:02:00,93.0,76.1,30.33,SE,135,2.0,3.5,58,0.00,CLR,,0.00,WeatherDisplay:10.37,2013-07-15 22:02:00,
2013-07-15 18:07:00,93.0,76.1,30.33,SE,135,2.0,3.5,58,0.00,CLR,,0.00,WeatherDisplay:10.37,2013-07-15 22:07:00,
2013-07-15 18:12:00,93.0,76.1,30.33,SE,135,2.0,3.5,58,0.00,CLR,,0.00,WeatherDisplay:10.37,2013-07-15 22:12:00,
2013-07-15 18:17:00,93.0,76.1,30.33,SE,135,2.0,3.5,58,0.00,CLR,,0.00,WeatherDisplay:10.37,2013-07-15 22:17:00,
2013-07-15 18:22:00,93.0,76.1,30.33,SE,135,2.0,3.5,58,0.00,CLR,,0.00,WeatherDisplay:10.37,2013-07-15 22:22:00,
2013-07-15 18:27:00,93.0,76.1,30.33,SE,135,2.0,3.5,58,0.00,CLR,,0.00,WeatherDisplay:10.37,2013-07-15 22:27:00,
2013-07-15 18:32:00,93.0,76.1,30.33,SE,135,2.0,3.5,58,0.00,CLR,,0.00,WeatherDisplay:10.37,2013-07-15 22:32:00,
2013-07-15 18:38:00,93.0,76.1,30.33,SE,135,2.0,3.5,58,0.00,CLR,,0.00,WeatherDisplay:10.37,2013-07-15 22:38:00,
2013-07-15 18:43:00,93.0,76.1,30.33,SE,135,2.0,3.5,58,0.00,CLR,,0.00,WeatherDisplay:10.37,2013-07-15 22:43:00,
2013-07-15 18:49:00,93.0,76.1,30.33,SE,135,2.0,3.5,58,0.00,CLR,,0.00,WeatherDisplay:10.37,2013-07-15 22:49:00,
2013-07-15 18:54:00,93.0,76.1,30.33,SE,135,2.0,3.5,58,0.00,CLR,,0.00,WeatherDisplay:10.37,2013-07-15 22:54:00,
2013-07-15 18:59:00,93.0,76.1,30.33,SE,135,2.0,3.5,58,0.00,CLR,,0.00,WeatherDisplay:10.37,2013-07-15 22:59:00,
2013-07-15 19:05:00,93.0,76.1,30.33,SE,135,2.0,3.5,58,0.00,CLR,,0.00,WeatherDisplay:10.37,2013-07-15 23:05:00,
2013-07-15 19:10:00,93.0,76.1,30.33,SE,135,2.0,3.5,58,0.00,CLR,,0.00,WeatherDisplay:10.37,2013-07-15 23:10:00,
2013-07-15 19:15:00,93.0,76.1,30.33,SE,135,2.0,3.5,58,0.00,CLR,,0.00,WeatherDisplay:10.37,2013-07-15 23:15:00,
2013-07-15 19:20:00,93.0,76.1,30.33,SE,135,2.0,3.5,58,0.00,CLR,,0.00,WeatherDisplay:10.37,2013-07-15 23:20:00,
2013-07-15 19:25:00,93.0,76.1,30.33,SE,135,2.0,3.5,58,0.00,CLR,,0.00,WeatherDisplay:10.37,2013-07-15 23:25:00,
2013-07-15 19:30:00,93.0,76.1,30.33,SE,135,2.0,3.5,58,0.00,CLR,,0.00,WeatherDisplay:10.37,2013-07-15 23:30:00,
2013-07-15 19:35:00,93.0,76.1,30.33,SE,135,2.0,3.5,58,0.00,CLR,,0.00,WeatherDisplay:10.37,2013-07-15 23:35:00,
2013-07-15 19:40:00,93.0,76.1,30.33,SE,135,2.0,3.5,58,0.00,CLR,,0.00,WeatherDisplay:10.37,2013-07-15 23:40:00,
2013-07-15 19:45:00,93.0,76.1,30.33,SE,135,2.0,3.5,58,0.00,CLR,,0.00,WeatherDisplay:10.37,2013-07-15 23:45:00,
2013-07-15 19:50:00,93.0,76.1,30.33,SE,135,2.0,3.5,58,0.00,CLR,,0.00,WeatherDisplay:10.37,2013-07-15 23:50:00,
2013-07-15 19:56:00,93.0,76.1,30.33,SE,135,2.0,3.5,58,0.00,CLR,,0.00,WeatherDisplay:10.37,2013-07-15 23:56:00,
2013-07-15 20:01:00,93.0,76.1,30.33,SE,135,2.0,3.5,58,0.00,CLR,,0.00,WeatherDisplay:10.37,2013-07-16 00:01:00,
2013-07-15 20:06:00,93.0,76.1,30.33,SE,135,2.0,3.5,58,0.00,CLR,,0.00,WeatherDisplay:10.37,2013-07-16 00:06:00,
2013-07-15 20:11:00,93.0,76.1,30.33,SE,135,2.0,3.5,58,0.00,CLR,,0.00,WeatherDisplay:10.37,2013-07-16 00:11:00,
2013-07-15 20:16:00,93.0,76.1,30.33,SE,135,2.0,3.5,58,0.00,CLR,,0.00,WeatherDisplay:10.37,2013-07-16 00:16:00,
2013-07-15 20:21:00,93.0,76.1,30.33,SE,135,2.0,3.5,58,0.00,CLR,,0.00,WeatherDisplay:10.37,2013-07-16 00:21:00,
2013-07-15 20:26:00,93.0,76.1,30.33,SE,135,2.0,3.5,58,0.00,CLR,,0.00,WeatherDisplay:10.37,2013-07-16 00:26:00,
2013-07-15 20:31:00,93.0,76.1,30.33,SE,135,2.0,3.5,58,0.00,CLR,,0.00,WeatherDisplay:10.37,2013-07-16 00:31:00,
2013-07-15 20:37:00,93.0,76.1,30.33,SE,135,2.0,3.5,58,0.00,CLR,,0.00,WeatherDisplay:10.37,2013-07-16 00:37:00,
2013-07-15 20:42:00,93.0,76.1,30.33,SE,135,2.0,3.5,58,0.00,CLR,,0.00,WeatherDisplay:10.37,2013-07-16 00:42:00,
2013-07-15 20:47:00,93.0,76.1,30.33,SE,135,2.0,3.5,58,0.00,CLR,,0.00,WeatherDisplay:10.37,2013-07-16 00:47:00,
2013-07-15 20:52:00,93.0,76.1,30.33,SE,135,2.0,3.5,58,0.00,CLR,,0.00,WeatherDisplay:10.37,2013-07-16 00:52:00,
2013-07-15 20:57:00,93.0,76.1,30.33,SE,135,2.0,3.5,58,0.00,CLR,,0.00,WeatherDisplay:10.37,2013-07-16 00:57:00,
2013-07-15 21:02:00,93.0,76.1,30.33,SE,135,2.0,3.5,58,0.00,CLR,,0.00,WeatherDisplay:10.37,2013-07-16 01:02:00,
2013-07-15 21:07:00,93.0,76.1,30.33,SE,135,2.0,3.5,58,0.00,CLR,,0.00,WeatherDisplay:10.37,2013-07-16 01:07:00,
2013-07-15 21:12:00,93.0,76.1,30.33,SE,135,2.0,3.5,58,0.00,CLR,,0.00,WeatherDisplay:10.37,2013-07-16 01:12:00,
2013-07-15 21:17:00,93.0,76.1,30.33,SE,135,2.0,3.5,58,0.00,CLR,,0.00,WeatherDisplay:10.37,2013-07-16 01:17:00,
2013-07-15 21:23:00,93.0,76.1,30.33,SE,135,2.0,3.5,58,0.00,CLR,,0.00,WeatherDisplay:10.37,2013-07-16 01:23:00,
2013-07-15 21:28:00,93.0,76.1,30.33,SE,135,2.0,3.5,58,0.00,CLR,,0.00,WeatherDisplay:10.37,2013-07-16 01:28:00,
2013-07-15 21:34:00,93.0,76.1,30.33,SE,135,2.0,3.5,58,0.00,CLR,,0.00,WeatherDisplay:10.37,2013-07-16 01:34:00,
2013-07-15 21:39:00,93.0,76.1,30.33,SE,135,2.0,3.5,58,0.00,CLR,,0.00,WeatherDisplay:10.37,2013-07-16 01:39:00,
2013-07-15 21:44:00,93.0,76.1,30.33,SE,135,2.0,3.5,58,0.00,CLR,,0.00,WeatherDisplay:10.37,2013-07-16 01:44:00,
2013-07-15 21:49:00,93.0,76.1,30.33,SE,135,2.0,3.5,58,0.00,CLR,,0.00,WeatherDisplay:10.37,2013-07-16 01:49:00,
2013-07-15 21:54:00,93.0,76.1,30.33,SE,135,2.0,3.5,58,0.00,CLR,,0.00,WeatherDisplay:10.37,2013-07-16 01:54:00,
2013-07-15 21:59:00,93.0,76.1,30.33,SE,135,2.0,3.5,58,0.00,CLR,,0.00,WeatherDisplay:10.37,2013-07-16 01:59:00,
2013-07-15 22:04:00,93.0,76.1,30.33,SE,135,2.0,3.5,58,0.00,CLR,,0.00,WeatherDisplay:10.37,2013-07-16 02:04:00,
2013-07-15 22:09:00,93.0,76.1,30.33,SE,135,2.0,3.5,58,0.00,CLR,,0.00,WeatherDisplay:10.37,2013-07-16 02:09:00,
2013-07-15 22:14:00,93.0,76.1,30.33,SE,135,2.0,3.5,58,0.00,CLR,,0.00,WeatherDisplay:10.37,2013-07-16 02:14:00,
2013-07-15 22:19:00,93.0,76.1,30.33,SE,135,2.0,3.5,58,0.00,CLR,,0.00,WeatherDisplay:10.37,2013-07-16 02:19:00,
2013-07-15 22:24:00,93.0,76.1,30.33,SE,135,2.0,3.5,58,0.00,CLR,,0.00,WeatherDisplay:10.37,2013-07-16 02:24:00,
2013-07-15 22:29:00,93.0,76.1,30.33,SE,135,2.0,3.5,58,0.00,CLR,,0.00,WeatherDisplay:10.37,2013-07-16 02:29:00,
2013-07-15 22:34:00,93.0,76.1,30.33,SE,135,2.0,3.5,58,0.00,CLR,,0.00,WeatherDisplay:10.37,2013-07-16 02:34:00,
2013-07-15 22:39:00,93.0,76.1,30.33,SE,135,2.0,3.5,58,0.00,CLR,,0.00,WeatherDisplay:10.37,2013-07-16 02:39:00,
2013-07-15 22:44:00,93.0,76.1,30.33,SE,135,2.0,3.5,58,0.00,CLR,,0.00,WeatherDisplay:10.37,2013-07-16 02:44:00,
2013-07-15 22:49:00,93.0,76.1,30.33,SE,135,2.0,3.5,58,0.00,CLR,,0.00,WeatherDisplay:10.37,2013-07-16 02:49:00,
2013-07-15 22:54:00,93.0,76.1,30.33,SE,135,2.0,3.5,58,0.00,CLR,,0.00,WeatherDisplay:10.37,2013-07-16 02:54:00,
2013-07-15 22:59:00,93.0,76.1,30.33,SE,135,2.0,3.5,58,0.00,CLR,,0.00,WeatherDisplay:10.37,2013-07-16 02:59:00,
2013-07-15 23:04:00,93.0,76.1,30.33,SE,135,2.0,3.5,58,0.00,CLR,,0.00,WeatherDisplay:10.37,2013-07-16 03:04:00,
2013-07-15 23:09:00,93.0,76.1,30.33,SE,135,2.0,3.5,58,0.00,CLR,,0.00,WeatherDisplay:10.37,2013-07-16 03:09:00,
2013-07-15 23:14:00,93.0,76.1,30.33,SE,135,2.0,3.5,58,0.00,CLR,,0.00,WeatherDisplay:10.37,2013-07-16 03:14:00,
2013-07-15 23:19:00,93.0,76.1,30.33,SE,135,2.0,3.5,58,0.00,CLR,,0.00,WeatherDisplay:10.37,2013-07-16 03:19:00,
2013-07-15 23:24:00,93.0,76.1,30.33,SE,135,2.0,3.5,58,0.00,CLR,,0.00,WeatherDisplay:10.37,2013-07-16 03:24:00,
2013-07-15 23:29:00,93.0,76.1,30.33,SE,135,2.0,3.5,58,0.00,CLR,,0.00,WeatherDisplay:10.37,2013-07-16 03:29:00,
2013-07-15 23:34:00,93.0,76.1,30.33,SE,135,2.0,3.5,58,0.00,CLR,,0.00,WeatherDisplay:10.37,2013-07-16 03:34:00,
2013-07-15 23:39:00,93.0,76.1,30.33,SE,135,2.0,3.5,58,0.00,CLR,,0.00,WeatherDisplay:10.37,2013-07-16 03:39:00,
2013-07-15 23:44:00,93.0,76.1,30.33,SE,135,2.0,3.5,58,0.00,CLR,,0.00,WeatherDisplay:10.37,2013-07-16 03:44:00,
2013-07-15 23:49:00,93.0,76.1,30.33,SE,135,2.0,3.5,58,0.00,CLR,,0.00,WeatherDisplay:10.37,2013-07-16 03:49:00,
2013-07-15 23:54:00,93.0,76.1,30.33,SE,135,2.0,3.5,58,0.00,CLR,,0.00,WeatherDisplay:10.37,2013-07-16 03:54:00,